Time;durP1;ratioP1;P1;durP2;ratioP2;P2;SDS_P1;SDS_P2;PMS_P1;PMS_P2;Temp;Humidity;BMP_temperature;BMP_pressure;BME280_temperature;BME280_humidity;BME280_pressure;Samples;Min_cycle;Max_cycle;Signal;HPM_P1;HPM_P2
2021/01/08 00:00:44;;;;;;;14.15;7.15;;;;;;;0.22;86.13;101463.75;4992048;28;20807;-51
2021/01/08 00:03:10;;;;;;;13.13;6.47;;;;;;;0.22;86.08;101458.28;4989591;28;20046;-51
2021/01/08 00:05:36;;;;;;;11.73;6.13;;;;;;;0.21;86.10;101456.66;4976726;28;20066;-50
2021/01/08 00:08:04;;;;;;;15.57;5.97;;;;;;;0.21;85.97;101462.13;4972344;28;20050;-57
2021/01/08 00:10:30;;;;;;;11.35;5.80;;;;;;;0.21;85.93;101462.13;4978235;28;20138;-49
2021/01/08 00:12:56;;;;;;;13.98;5.60;;;;;;;0.22;86.07;101458.28;4969314;28;20106;-49
2021/01/08 00:15:23;;;;;;;18.38;5.28;;;;;;;0.18;86.17;101457.19;4969363;28;20050;-50
2021/01/08 00:17:50;;;;;;;13.45;6.07;;;;;;;0.18;86.10;101450.91;4969064;28;20367;-49
2021/01/08 00:20:16;;;;;;;10.73;5.32;;;;;;;0.14;86.28;101450.59;4968935;28;20055;-53
2021/01/08 00:22:45;;;;;;;12.57;4.75;;;;;;;0.14;86.43;101447.03;4974818;28;20046;-50
2021/01/08 00:25:11;;;;;;;10.35;6.28;;;;;;;0.15;85.98;101449.53;4988627;28;20724;-55
2021/01/08 00:27:38;;;;;;;11.98;5.25;;;;;;;0.16;86.40;101436.75;4982144;28;20075;-51
2021/01/08 00:30:08;;;;;;;12.75;5.45;;;;;;;0.16;86.44;101447.63;4992262;28;20049;-52
2021/01/08 00:32:34;;;;;;;11.20;6.07;;;;;;;0.16;86.27;101448.44;4980372;28;20345;-48
2021/01/08 00:35:00;;;;;;;13.15;5.55;;;;;;;0.17;86.19;101443.81;4978816;28;20098;-53
2021/01/08 00:37:27;;;;;;;14.57;6.03;;;;;;;0.18;86.17;101446.28;4983166;28;20125;-49
2021/01/08 00:39:53;;;;;;;8.70;4.82;;;;;;;0.18;86.23;101454.47;4992059;28;20113;-49
2021/01/08 00:42:20;;;;;;;13.93;6.22;;;;;;;0.18;86.05;101454.47;4986427;28;20525;-50
2021/01/08 00:44:46;;;;;;;12.82;6.15;;;;;;;0.17;85.91;101455.53;4972932;28;20047;-51
2021/01/08 00:47:12;;;;;;;13.07;5.80;;;;;;;0.16;85.97;101453.88;4980677;28;20046;-51
2021/01/08 00:49:39;;;;;;;11.25;5.30;;;;;;;0.13;86.18;101451.69;4972266;28;20097;-51
2021/01/08 00:52:06;;;;;;;21.23;6.32;;;;;;;0.13;86.02;101438.09;4973642;28;20497;-50
2021/01/08 00:54:32;;;;;;;9.85;5.75;;;;;;;0.12;85.94;101443.78;4977654;28;20089;-49
2021/01/08 00:56:58;;;;;;;12.63;5.55;;;;;;;0.12;86.12;101439.16;4973383;28;20378;-49
2021/01/08 00:59:25;;;;;;;10.15;5.13;;;;;;;0.10;86.03;101448.66;4975306;28;20047;-49
2021/01/08 01:01:51;;;;;;;9.93;5.18;;;;;;;0.09;85.93;101447.00;4975987;28;20051;-50
2021/01/08 01:04:17;;;;;;;9.55;4.40;;;;;;;0.07;86.01;101449.16;4977610;28;20608;-48
2021/01/08 01:06:44;;;;;;;8.15;4.47;;;;;;;0.08;86.07;101439.94;4994322;28;20445;-51
2021/01/08 01:09:10;;;;;;;10.00;4.03;;;;;;;0.04;86.25;101434.19;4977639;28;20133;-49
2021/01/08 01:11:38;;;;;;;8.52;4.60;;;;;;;0.04;86.16;101450.50;4995339;28;20090;-49
2021/01/08 01:14:05;;;;;;;8.90;3.97;;;;;;;0.06;86.16;101459.22;4988089;28;20051;-49
2021/01/08 01:16:32;;;;;;;7.53;3.92;;;;;;;0.08;86.24;101453.56;4975746;28;20054;-48
2021/01/08 01:18:58;;;;;;;12.95;5.07;;;;;;;0.09;86.11;101453.28;4975970;28;20075;-49
2021/01/08 01:21:26;;;;;;;9.80;4.40;;;;;;;0.08;86.19;101457.06;4975395;28;20051;-52
2021/01/08 01:23:53;;;;;;;8.40;4.32;;;;;;;0.07;86.20;101455.44;4984746;28;20046;-54
2021/01/08 01:26:19;;;;;;;9.65;4.60;;;;;;;0.06;86.09;101463.84;4994943;28;20457;-51
2021/01/08 01:28:46;;;;;;;11.73;4.70;;;;;;;0.04;85.90;101461.41;4992976;28;20035;-52
2021/01/08 01:31:12;;;;;;;10.80;4.63;;;;;;;0.04;86.26;101461.41;5014356;28;20038;-52
2021/01/08 01:33:38;;;;;;;11.45;5.10;;;;;;;0.03;86.26;101461.66;5001691;28;20097;-51
2021/01/08 01:36:08;;;;;;;12.13;4.75;;;;;;;0.03;86.20;101469.84;4991084;28;20057;-52
2021/01/08 01:38:35;;;;;;;9.70;5.15;;;;;;;-0.01;86.20;101462.19;4978835;28;20064;-53
2021/01/08 01:41:03;;;;;;;12.70;5.63;;;;;;;-0.02;86.03;101468.69;4974711;28;20066;-52
2021/01/08 01:43:29;;;;;;;10.73;4.95;;;;;;;-0.01;86.17;101470.34;4974892;28;20063;-50
2021/01/08 01:45:56;;;;;;;7.55;4.00;;;;;;;0.02;86.16;101460.84;4973914;28;20047;-51
2021/01/08 01:48:23;;;;;;;12.20;3.83;;;;;;;0.03;86.08;101469.84;4974271;28;20035;-49
2021/01/08 01:50:51;;;;;;;8.65;4.38;;;;;;;0.03;86.12;101478.81;4975036;28;20094;-51
2021/01/08 01:53:17;;;;;;;11.70;4.82;;;;;;;0.05;86.21;101470.41;4962809;28;20058;-50
2021/01/08 01:55:46;;;;;;;12.50;4.25;;;;;;;0.06;86.07;101470.13;4963360;28;20053;-51
2021/01/08 01:58:13;;;;;;;12.60;4.78;;;;;;;0.07;86.21;101471.78;4974098;28;20063;-50
2021/01/08 02:00:39;;;;;;;15.20;4.72;;;;;;;0.07;86.14;101477.22;4976233;28;20054;-54
2021/01/08 02:03:14;;;;;;;22.20;5.47;;;;;;;0.09;86.14;101487.84;4993134;28;20054;-48
2021/01/08 02:05:40;;;;;;;7.25;3.53;;;;;;;0.12;85.94;101484.59;4978580;28;20556;-48
2021/01/08 02:08:11;;;;;;;8.25;3.53;;;;;;;0.10;85.79;101487.59;4979970;28;20491;-53
2021/01/08 02:10:45;;;;;;;10.27;4.40;;;;;;;0.07;85.57;101474.50;4999439;28;20136;-52
2021/01/08 02:13:23;;;;;;;10.43;3.60;;;;;;;0.06;85.38;101491.91;4999414;28;20071;-51
2021/01/08 02:16:01;;;;;;;10.70;3.55;;;;;;;0.11;85.58;101486.50;4974696;28;20509;-51
2021/01/08 02:18:29;;;;;;;13.75;5.00;;;;;;;0.11;85.62;101488.44;4956981;28;20074;-51
2021/01/08 02:21:02;;;;;;;8.43;4.47;;;;;;;0.07;85.53;101496.28;4973831;28;20367;-55
2021/01/08 02:23:41;;;;;;;9.55;4.38;;;;;;;0.04;85.52;101494.06;4974329;28;20047;-51
2021/01/08 02:26:08;;;;;;;12.35;5.15;;;;;;;0.01;85.42;101489.13;4982327;28;20042;-51
2021/01/08 02:28:35;;;;;;;6.95;4.53;;;;;;;0.01;85.44;101494.56;4991248;28;20077;-50
2021/01/08 02:31:02;;;;;;;8.38;3.58;;;;;;;-0.01;85.62;101491.28;4984432;28;20113;-53
2021/01/08 02:33:29;;;;;;;11.32;4.13;;;;;;;-0.01;85.56;101502.19;4993048;28;20077;-51
2021/01/08 02:36:00;;;;;;;7.35;3.38;;;;;;;-0.01;85.56;101496.75;4986567;28;20493;-52
2021/01/08 02:38:27;;;;;;;9.10;3.67;;;;;;;-0.02;85.59;101495.09;4973763;28;20038;-53
2021/01/08 02:40:54;;;;;;;16.27;4.20;;;;;;;-0.03;85.56;101507.06;4974079;28;20059;-52
2021/01/08 02:43:23;;;;;;;11.10;3.50;;;;;;;-0.05;85.47;101517.38;4973675;28;20043;-49
2021/01/08 02:45:53;;;;;;;10.63;4.22;;;;;;;-0.08;85.29;101501.56;4973883;28;20401;-53
2021/01/08 02:48:20;;;;;;;7.03;2.78;;;;;;;-0.08;85.16;101501.56;4973999;28;20086;-52
2021/01/08 02:50:47;;;;;;;8.27;3.30;;;;;;;-0.13;85.10;101487.88;4976231;28;20042;-54
2021/01/08 02:53:20;;;;;;;15.07;3.88;;;;;;;-0.14;85.21;101503.41;4985265;28;20082;-55
2021/01/08 02:55:53;;;;;;;5.97;3.05;;;;;;;-0.15;85.28;101509.09;4960145;28;20137;-51
2021/01/08 02:58:21;;;;;;;7.72;2.70;;;;;;;-0.17;85.05;101506.66;4986100;28;20048;-54
2021/01/08 03:00:51;;;;;;;8.07;3.70;;;;;;;-0.17;85.06;101503.94;4992308;28;20093;-53
2021/01/08 03:03:18;;;;;;;8.50;3.15;;;;;;;-0.18;84.65;101490.56;4992253;28;20038;-54
2021/01/08 03:05:48;;;;;;;9.93;2.88;;;;;;;-0.16;84.87;101496.59;4993153;28;20050;-49
2021/01/08 03:08:14;;;;;;;5.28;2.50;;;;;;;-0.15;84.84;101487.34;4980059;28;20500;-51
2021/01/08 03:10:42;;;;;;;4.97;2.80;;;;;;;-0.16;84.54;101493.88;4978154;28;20051;-52
2021/01/08 03:13:09;;;;;;;10.15;3.60;;;;;;;-0.15;84.38;101495.50;4964590;28;20046;-51
2021/01/08 03:15:36;;;;;;;8.13;2.60;;;;;;;-0.14;84.42;101502.59;4991921;28;20081;-53
2021/01/08 03:18:02;;;;;;;5.63;2.38;;;;;;;-0.13;84.61;101504.22;4979508;28;20050;-50
2021/01/08 03:20:29;;;;;;;6.60;2.97;;;;;;;-0.14;84.69;101503.41;4964661;28;20103;-51
2021/01/08 03:22:55;;;;;;;7.18;1.73;;;;;;;-0.13;84.38;101515.09;4955845;28;20446;-51
2021/01/08 03:25:22;;;;;;;5.30;2.40;;;;;;;-0.12;84.33;101514.03;4972962;28;20082;-50
2021/01/08 03:27:49;;;;;;;4.90;2.35;;;;;;;-0.12;84.19;101522.19;4976018;28;20098;-49
2021/01/08 03:30:15;;;;;;;4.18;1.80;;;;;;;-0.12;84.43;101517.59;4980001;28;20077;-53
2021/01/08 03:32:41;;;;;;;10.02;2.20;;;;;;;-0.13;84.03;101515.94;4976366;28;20097;-49
2021/01/08 03:35:09;;;;;;;7.70;2.67;;;;;;;-0.11;84.23;101518.41;4958293;28;20528;-49
2021/01/08 03:37:36;;;;;;;6.90;2.10;;;;;;;-0.11;84.05;101521.94;4984991;28;20062;-49
2021/01/08 03:40:07;;;;;;;4.15;2.10;;;;;;;-0.10;84.28;101522.75;4983052;28;20043;-50
2021/01/08 03:42:34;;;;;;;11.20;3.17;;;;;;;-0.14;83.94;101524.38;4974898;28;20042;-53
2021/01/08 03:45:01;;;;;;;6.30;2.00;;;;;;;-0.17;83.80;101517.53;4989477;28;20119;-51
2021/01/08 03:47:27;;;;;;;7.95;1.65;;;;;;;-0.20;83.85;101520.75;4972667;28;20497;-50
2021/01/08 03:49:54;;;;;;;6.18;2.70;;;;;;;-0.21;83.80;101513.66;4961687;28;20429;-48
2021/01/08 03:52:20;;;;;;;11.40;2.22;;;;;;;-0.22;84.16;101505.75;4980360;28;20560;-50
2021/01/08 03:54:46;;;;;;;8.15;2.42;;;;;;;-0.24;84.07;101522.31;4972369;28;20448;-48
2021/01/08 03:57:12;;;;;;;4.75;1.60;;;;;;;-0.26;83.88;101518.22;4955591;28;20051;-49
2021/01/08 03:59:39;;;;;;;10.82;1.95;;;;;;;-0.28;84.07;101514.94;4982526;28;20050;-50
2021/01/08 04:02:05;;;;;;;8.05;2.17;;;;;;;-0.30;83.85;101519.81;4991936;28;20134;-50
2021/01/08 04:04:32;;;;;;;7.05;2.38;;;;;;;-0.32;83.98;101521.97;4992086;28;20515;-48
2021/01/08 04:06:59;;;;;;;13.63;2.17;;;;;;;-0.32;83.96;101524.69;4992281;28;20078;-50
2021/01/08 04:09:26;;;;;;;9.05;1.52;;;;;;;-0.35;84.00;101531.47;4991386;28;20519;-49
2021/01/08 04:11:52;;;;;;;4.60;1.65;;;;;;;-0.35;84.19;101531.47;4974782;28;20097;-48
2021/01/08 04:14:19;;;;;;;13.13;2.20;;;;;;;-0.36;83.71;101529.00;4989083;28;20137;-48
2021/01/08 04:16:45;;;;;;;5.07;1.95;;;;;;;-0.39;84.04;101533.03;4980994;28;20409;-48
2021/01/08 04:19:12;;;;;;;7.90;2.33;;;;;;;-0.43;83.78;101517.50;4971281;28;20111;-48
2021/01/08 04:21:39;;;;;;;4.03;1.50;;;;;;;-0.44;84.00;101524.81;4971945;28;20055;-50
2021/01/08 04:24:05;;;;;;;9.30;1.20;;;;;;;-0.44;84.07;101518.56;4955571;28;20047;-57
2021/01/08 04:26:32;;;;;;;5.88;1.73;;;;;;;-0.46;83.99;101520.72;4992905;28;20074;-53
2021/01/08 04:28:58;;;;;;;11.45;2.70;;;;;;;-0.47;83.68;101524.50;4996764;28;20050;-52
2021/01/08 04:31:25;;;;;;;4.65;1.40;;;;;;;-0.50;84.04;101531.25;5015536;28;20077;-52
2021/01/08 04:33:51;;;;;;;4.25;1.45;;;;;;;-0.49;83.97;101530.19;4992770;28;20568;-53
2021/01/08 04:36:18;;;;;;;6.50;1.45;;;;;;;-0.50;83.88;101514.16;4977762;28;20465;-52
2021/01/08 04:38:44;;;;;;;3.45;1.00;;;;;;;-0.54;84.34;101523.88;4994843;28;20054;-49
2021/01/08 04:41:10;;;;;;;3.10;1.58;;;;;;;-0.53;83.99;101515.44;4994996;28;20046;-51
2021/01/08 04:43:37;;;;;;;11.85;1.15;;;;;;;-0.56;83.93;101523.31;4995185;28;20184;-51
2021/01/08 04:46:08;;;;;;;3.65;1.00;;;;;;;-0.58;84.11;101523.53;4995640;28;20128;-54
2021/01/08 04:48:35;;;;;;;4.15;1.27;;;;;;;-0.56;84.20;101526.84;4994372;28;20077;-51
2021/01/08 04:51:03;;;;;;;7.38;1.75;;;;;;;-0.56;84.03;101520.59;4995059;28;20046;-53
2021/01/08 04:53:31;;;;;;;5.40;1.80;;;;;;;-0.54;83.95;101513.81;4978144;28;20046;-50
2021/01/08 04:56:03;;;;;;;6.22;1.20;;;;;;;-0.53;84.00;101514.66;4990743;28;20039;-51
2021/01/08 04:58:31;;;;;;;8.00;1.50;;;;;;;-0.53;83.92;101514.66;4975867;28;20104;-49
2021/01/08 05:01:00;;;;;;;4.88;1.00;;;;;;;-0.49;83.88;101513.88;4974563;28;20107;-51
2021/01/08 05:03:30;;;;;;;3.55;1.02;;;;;;;-0.44;84.10;101515.84;4967047;28;20050;-54
2021/01/08 05:05:57;;;;;;;6.05;0.90;;;;;;;-0.42;84.15;101522.66;4976113;28;20074;-51
2021/01/08 05:08:24;;;;;;;0.65;0.40;;;;;;;-0.42;84.08;101516.41;4975165;28;20442;-50
2021/01/08 05:10:50;;;;;;;4.93;1.08;;;;;;;-0.40;84.00;101519.72;4975963;28;20492;-50
2021/01/08 05:13:17;;;;;;;4.03;1.08;;;;;;;-0.40;83.97;101517.81;4975453;28;20110;-53
2021/01/08 05:15:53;;;;;;;5.25;0.90;;;;;;;-0.39;83.94;101537.66;4980375;28;20109;-49
2021/01/08 05:18:21;;;;;;;6.32;2.80;;;;;;;-0.38;84.20;101539.31;4983625;28;20533;-53
2021/01/08 05:20:51;;;;;;;5.13;1.23;;;;;;;-0.37;83.94;101540.97;4957769;28;20137;-49
2021/01/08 05:23:19;;;;;;;4.25;0.88;;;;;;;-0.37;83.98;101547.19;4980401;28;20042;-51
2021/01/08 05:25:49;;;;;;;4.28;0.80;;;;;;;-0.37;84.03;101546.41;4985488;28;20606;-52
2021/01/08 05:28:19;;;;;;;5.32;1.02;;;;;;;-0.41;84.10;101551.53;4974998;28;20051;-52
2021/01/08 05:30:45;;;;;;;6.85;1.05;;;;;;;-0.42;84.07;101554.47;4960653;28;20487;-52
2021/01/08 05:33:16;;;;;;;4.25;0.90;;;;;;;-0.45;83.97;101560.44;4977781;28;20054;-48
2021/01/08 05:35:43;;;;;;;3.90;1.00;;;;;;;-0.44;84.22;101559.34;4974205;28;20126;-50
2021/01/08 05:38:11;;;;;;;7.72;1.10;;;;;;;-0.41;84.41;101567.00;4983793;28;20054;-50
2021/01/08 05:40:39;;;;;;;2.72;1.00;;;;;;;-0.39;84.31;101562.13;4974731;28;20114;-50
2021/01/08 05:43:09;;;;;;;6.88;0.88;;;;;;;-0.35;84.22;101555.13;4973017;28;20039;-52
2021/01/08 05:45:35;;;;;;;4.68;1.02;;;;;;;-0.31;83.96;101559.81;4974931;28;20440;-53
2021/01/08 05:48:06;;;;;;;3.03;0.95;;;;;;;-0.29;84.00;101554.13;4975046;28;20047;-51
2021/01/08 05:50:34;;;;;;;9.13;0.80;;;;;;;-0.31;84.04;101558.97;4977331;28;20110;-51
2021/01/08 05:53:05;;;;;;;7.25;1.13;;;;;;;-0.36;83.91;101553.47;4973198;28;20105;-50
2021/01/08 05:55:42;;;;;;;4.13;0.80;;;;;;;-0.37;83.86;101557.28;4976386;28;20046;-52
2021/01/08 05:58:21;;;;;;;1.80;0.70;;;;;;;-0.38;83.99;101566.50;4994397;28;20300;-51
2021/01/08 06:01:01;;;;;;;3.45;1.30;;;;;;;-0.40;83.70;101560.50;4977871;28;20049;-49
2021/01/08 06:03:28;;;;;;;4.47;0.55;;;;;;;-0.40;83.78;101563.22;4987050;28;20050;-50
2021/01/08 06:05:59;;;;;;;6.35;1.83;;;;;;;-0.43;83.79;101569.16;4976733;28;20039;-50
2021/01/08 06:08:27;;;;;;;5.20;0.85;;;;;;;-0.47;83.88;101568.00;4975397;28;20082;-51
2021/01/08 06:10:56;;;;;;;7.47;2.13;;;;;;;-0.50;83.98;101568.53;5004175;28;20046;-49
2021/01/08 06:13:33;;;;;;;5.60;1.50;;;;;;;-0.54;83.91;101572.81;5011947;28;20081;-48
2021/01/08 06:16:02;;;;;;;5.85;1.23;;;;;;;-0.56;83.94;101569.53;4974553;28;20094;-51
2021/01/08 06:18:29;;;;;;;5.93;1.05;;;;;;;-0.56;83.82;101580.41;4974296;28;20053;-51
2021/01/08 06:21:05;;;;;;;3.95;1.25;;;;;;;-0.63;83.83;101567.81;4974178;28;20113;-51
2021/01/08 06:23:41;;;;;;;6.18;1.65;;;;;;;-0.67;84.01;101582.19;4977779;28;20081;-47
2021/01/08 06:26:30;;;;;;;2.13;0.80;;;;;;;-0.70;83.93;101572.63;4975482;28;20039;-51
2021/01/08 06:29:10;;;;;;;5.63;0.93;;;;;;;-0.73;83.88;101585.88;4978507;28;20480;-48
2021/01/08 06:31:51;;;;;;;11.43;1.38;;;;;;;-0.76;84.12;101587.22;4973748;28;20106;-48
2021/01/08 06:34:29;;;;;;;1.42;0.55;;;;;;;-0.76;84.32;101580.94;4990135;28;20080;-51
2021/01/08 06:37:10;;;;;;;1.70;0.60;;;;;;;-0.75;84.02;101578.00;4991454;28;20054;-48
2021/01/08 06:39:40;;;;;;;7.60;1.17;;;;;;;-0.76;84.04;101591.81;4974354;28;20055;-49
2021/01/08 06:42:07;;;;;;;10.18;1.00;;;;;;;-0.78;84.01;101593.97;4989372;28;20054;-52
2021/01/08 06:44:34;;;;;;;4.50;0.77;;;;;;;-0.79;84.14;101595.84;4992642;28;20559;-48
2021/01/08 06:47:05;;;;;;;3.92;1.65;;;;;;;-0.80;84.17;101602.38;4993583;28;20178;-49
2021/01/08 06:49:35;;;;;;;4.60;0.80;;;;;;;-0.79;83.91;101600.47;4984163;28;20070;-51
2021/01/08 06:52:03;;;;;;;5.85;1.25;;;;;;;-0.81;84.03;101600.72;4974096;28;20049;-50
2021/01/08 06:54:29;;;;;;;5.00;0.93;;;;;;;-0.82;83.82;101607.22;4973793;28;20046;-51
2021/01/08 06:56:59;;;;;;;4.63;0.60;;;;;;;-0.83;84.04;101604.78;4974171;28;20680;-50
2021/01/08 06:59:32;;;;;;;6.88;0.95;;;;;;;-0.84;84.49;101603.94;4964569;28;20068;-49
2021/01/08 07:02:11;;;;;;;2.15;0.85;;;;;;;-0.84;84.05;101603.94;4993041;28;20046;-49
2021/01/08 07:04:39;;;;;;;4.15;0.68;;;;;;;-0.86;83.94;101603.38;4993235;28;20042;-49
2021/01/08 07:07:28;;;;;;;5.55;0.93;;;;;;;-0.85;84.01;101610.44;4993016;28;20492;-49
2021/01/08 07:10:15;;;;;;;2.67;1.38;;;;;;;-0.84;84.19;101612.09;4992397;28;20046;-51
2021/01/08 07:13:03;;;;;;;2.70;0.77;;;;;;;-0.82;84.14;101615.38;4992162;28;20046;-49
2021/01/08 07:15:50;;;;;;;2.75;0.80;;;;;;;-0.79;84.18;101625.75;4985888;28;20054;-49
2021/01/08 07:18:37;;;;;;;2.63;0.85;;;;;;;-0.75;84.13;101616.06;4972381;28;20243;-51
2021/01/08 07:21:23;;;;;;;1.45;0.50;;;;;;;-0.72;84.06;101626.44;4961630;28;20192;-53
2021/01/08 07:24:14;;;;;;;1.42;0.90;;;;;;;-0.70;84.34;101618.00;4953922;29;20424;-50
2021/01/08 07:27:13;;;;;;;0.43;0.40;;;;;;;-0.64;84.39;101639.59;4953024;29;20059;-49
2021/01/08 07:30:03;;;;;;;3.47;0.70;;;;;;;-0.60;84.21;101645.34;4976868;28;20042;-49
2021/01/08 07:32:52;;;;;;;5.32;1.27;;;;;;;-0.57;84.11;101635.88;4953867;28;20058;-53
2021/01/08 07:35:25;;;;;;;4.20;0.80;;;;;;;-0.58;84.12;101637.75;4973097;28;20043;-53
2021/01/08 07:37:58;;;;;;;4.10;0.73;;;;;;;-0.60;84.01;101642.63;4957920;28;20102;-51
2021/01/08 07:40:28;;;;;;;3.83;0.80;;;;;;;-0.65;84.00;101640.66;4953795;29;20446;-50
2021/01/08 07:42:55;;;;;;;1.75;0.70;;;;;;;-0.64;83.94;101644.22;4954363;29;20073;-52
2021/01/08 07:45:22;;;;;;;2.30;0.60;;;;;;;-0.69;83.83;101644.94;4968334;28;20042;-48
2021/01/08 07:47:48;;;;;;;3.80;0.80;;;;;;;-0.72;83.88;101648.19;4973091;28;20141;-51
2021/01/08 07:50:17;;;;;;;5.07;0.75;;;;;;;-0.74;83.91;101649.47;4970359;28;20086;-50
2021/01/08 07:52:45;;;;;;;1.40;0.40;;;;;;;-0.73;83.98;101651.13;4972854;28;20047;-49
2021/01/08 07:55:32;;;;;;;6.60;0.88;;;;;;;-0.76;83.91;101644.31;4955101;28;20490;-57
2021/01/08 07:58:03;;;;;;;4.30;1.15;;;;;;;-0.76;83.93;101657.06;4968362;28;20433;-51
2021/01/08 08:00:34;;;;;;;4.32;0.90;;;;;;;-0.79;83.86;101661.09;4969516;28;20054;-51
2021/01/08 08:03:00;;;;;;;1.83;0.73;;;;;;;-0.81;83.86;101670.59;4968950;28;20047;-50
2021/01/08 08:05:31;;;;;;;11.00;3.00;;;;;;;-0.82;83.86;101663.50;4969880;28;20073;-52
2021/01/08 08:08:01;;;;;;;2.47;0.75;;;;;;;-0.85;84.10;101669.44;4959154;28;20070;-51
2021/01/08 08:10:30;;;;;;;2.25;1.13;;;;;;;-0.84;83.95;101660.19;4965834;28;20452;-53
2021/01/08 08:12:57;;;;;;;2.90;0.68;;;;;;;-0.87;83.82;101675.09;4944319;28;20752;-53
2021/01/08 08:15:23;;;;;;;1.65;0.90;;;;;;;-0.86;83.72;101679.50;4955154;28;20053;-51
2021/01/08 08:17:50;;;;;;;5.68;0.80;;;;;;;-0.88;83.68;101680.81;4966176;28;20038;-49
2021/01/08 08:20:22;;;;;;;6.88;0.93;;;;;;;-0.89;83.60;101681.88;4955389;28;20102;-51
2021/01/08 08:22:50;;;;;;;2.42;0.70;;;;;;;-0.90;83.84;101689.19;4974043;28;20066;-53
2021/01/08 08:25:30;;;;;;;0.95;0.60;;;;;;;-0.92;83.57;101702.22;4960596;28;20055;-51
2021/01/08 08:27:59;;;;;;;2.78;0.77;;;;;;;-0.92;83.57;101694.06;4971167;28;20050;-54
2021/01/08 08:30:27;;;;;;;1.60;0.40;;;;;;;-0.92;83.58;101691.34;4990722;28;20042;-51
2021/01/08 08:32:55;;;;;;;2.00;0.75;;;;;;;-0.91;83.89;101684.00;4989130;28;20039;-49
2021/01/08 08:35:23;;;;;;;3.97;3.17;;;;;;;-0.90;83.70;101689.19;4968059;28;20397;-53
2021/01/08 08:37:53;;;;;;;3.70;0.63;;;;;;;-0.88;83.35;101689.78;4977662;28;20560;-52
2021/01/08 08:40:25;;;;;;;2.05;0.55;;;;;;;-0.87;83.31;101688.69;4970245;28;20035;-54
2021/01/08 08:43:00;;;;;;;2.22;1.08;;;;;;;-0.86;83.35;101687.63;4976531;28;20054;-52
2021/01/08 08:45:31;;;;;;;4.03;1.65;;;;;;;-0.85;82.98;101692.00;4967931;28;20054;-52
2021/01/08 08:48:07;;;;;;;8.80;1.17;;;;;;;-0.85;83.02;101697.44;4980647;28;20137;-49
2021/01/08 08:50:57;;;;;;;2.90;0.70;;;;;;;-0.85;83.39;101689.28;4970365;28;20039;-51
2021/01/08 08:53:23;;;;;;;1.92;0.57;;;;;;;-0.84;83.10;101696.38;4970459;28;20059;-51
2021/01/08 08:55:55;;;;;;;1.17;0.45;;;;;;;-0.83;82.89;101708.91;4984713;28;20129;-53
2021/01/08 08:58:21;;;;;;;0.80;0.80;;;;;;;-0.83;82.88;101711.63;4981073;28;20496;-50
2021/01/08 09:00:47;;;;;;;2.65;0.70;;;;;;;-0.84;82.85;101707.25;4987815;28;20042;-50
2021/01/08 09:03:24;;;;;;;1.98;0.75;;;;;;;-0.83;82.72;101708.06;4968104;28;20129;-50
2021/01/08 09:05:52;;;;;;;4.95;0.60;;;;;;;-0.84;82.77;101715.41;4966268;28;20503;-53
2021/01/08 09:08:26;;;;;;;2.35;0.65;;;;;;;-0.82;82.42;101729.56;4971313;28;20412;-57
2021/01/08 09:11:14;;;;;;;4.20;1.00;;;;;;;-0.80;82.51;101724.72;4971800;28;20102;-49
2021/01/08 09:13:58;;;;;;;5.00;1.25;;;;;;;-0.79;82.47;101734.50;4960482;28;20097;-51
2021/01/08 09:16:46;;;;;;;3.75;0.95;;;;;;;-0.79;82.20;101744.56;4981310;28;20070;-51
2021/01/08 09:19:47;;;;;;;5.65;1.38;;;;;;;-0.83;82.15;101736.09;4975832;28;20052;-53
2021/01/08 09:22:15;;;;;;;15.18;1.52;;;;;;;-0.84;82.56;101730.88;4975316;28;20050;-51
2021/01/08 09:25:02;;;;;;;5.03;2.35;;;;;;;-0.83;82.68;101735.25;4982764;28;20039;-49
2021/01/08 09:27:29;;;;;;;3.50;0.80;;;;;;;-0.83;82.57;101733.38;4959838;28;20094;-52
2021/01/08 09:30:06;;;;;;;1.60;0.68;;;;;;;-0.84;81.91;101736.31;4961909;28;20035;-55
2021/01/08 09:32:33;;;;;;;3.10;0.90;;;;;;;-0.82;82.30;101737.72;4982153;28;20098;-50
2021/01/08 09:35:10;;;;;;;1.50;1.40;;;;;;;-0.81;82.06;101733.94;4992231;28;20109;-50
2021/01/08 09:37:48;;;;;;;2.05;1.00;;;;;;;-0.78;81.85;101735.34;4991848;28;20069;-54
2021/01/08 09:40:17;;;;;;;4.30;1.00;;;;;;;-0.77;81.96;101743.22;4962647;28;20058;-51
2021/01/08 09:43:03;;;;;;;4.32;0.80;;;;;;;-0.73;82.13;101744.41;4973018;28;20117;-52
2021/01/08 09:45:29;;;;;;;1.70;0.52;;;;;;;-0.76;82.04;101746.78;4972826;28;20046;-52
2021/01/08 09:47:55;;;;;;;5.22;0.85;;;;;;;-0.75;82.04;101760.16;4973462;28;20073;-50
2021/01/08 09:50:23;;;;;;;2.47;0.70;;;;;;;-0.71;82.16;101772.16;4972732;28;20489;-54
2021/01/08 09:52:50;;;;;;;2.88;0.98;;;;;;;-0.67;82.14;101770.63;4972936;28;20113;-55
2021/01/08 09:55:29;;;;;;;2.60;0.68;;;;;;;-0.64;82.00;101783.69;4974817;28;20050;-51
2021/01/08 09:58:15;;;;;;;3.83;0.80;;;;;;;-0.60;81.75;101789.47;4988125;28;20058;-51
2021/01/08 10:01:02;;;;;;;4.28;1.25;;;;;;;-0.59;82.18;101787.59;4972063;28;20693;-53
2021/01/08 10:03:41;;;;;;;2.63;1.02;;;;;;;-0.56;82.10;101798.00;4986168;28;20058;-54
2021/01/08 10:06:13;;;;;;;5.05;1.40;;;;;;;-0.52;82.40;101799.13;4972768;28;20066;-53
2021/01/08 10:08:45;;;;;;;3.80;1.20;;;;;;;-0.49;82.27;101801.34;4971040;28;20046;-51
2021/01/08 10:11:26;;;;;;;3.03;0.90;;;;;;;-0.45;82.11;101800.63;4980824;28;20077;-49
2021/01/08 10:14:04;;;;;;;1.60;0.77;;;;;;;-0.38;81.94;101805.91;4972993;28;20047;-51
2021/01/08 10:16:39;;;;;;;4.72;1.00;;;;;;;-0.34;81.95;101801.59;4974211;28;20133;-52
2021/01/08 10:19:09;;;;;;;4.60;1.08;;;;;;;-0.31;82.00;101801.94;4972744;28;20047;-53
2021/01/08 10:22:01;;;;;;;2.90;0.65;;;;;;;-0.25;82.10;101802.84;4975580;28;20552;-52
2021/01/08 10:24:47;;;;;;;6.40;1.30;;;;;;;-0.20;81.83;101808.38;4983378;28;20421;-52
2021/01/08 10:27:14;;;;;;;3.45;0.60;;;;;;;-0.19;81.72;101804.59;4985473;28;20042;-54
2021/01/08 10:29:40;;;;;;;4.28;1.13;;;;;;;-0.16;81.40;101809.53;4992855;28;20100;-50
2021/01/08 10:32:08;;;;;;;4.07;1.38;;;;;;;-0.13;81.33;101803.56;4970559;28;20512;-52
2021/01/08 10:34:37;;;;;;;1.65;0.60;;;;;;;-0.11;81.33;101804.19;4989678;28;20507;-53
2021/01/08 10:37:04;;;;;;;1.02;0.65;;;;;;;-0.09;81.49;101799.31;4988844;28;20054;-55
2021/01/08 10:39:30;;;;;;;2.58;0.82;;;;;;;-0.10;81.09;101813.97;4987267;28;20046;-54
2021/01/08 10:41:57;;;;;;;1.77;0.80;;;;;;;-0.14;80.85;101812.84;4984755;28;20074;-50
2021/01/08 10:44:40;;;;;;;2.58;0.90;;;;;;;-0.19;81.14;101812.75;4980149;28;20481;-53
2021/01/08 10:47:07;;;;;;;4.53;1.05;;;;;;;-0.22;80.80;101816.81;4970457;28;20453;-54
2021/01/08 10:49:37;;;;;;;4.45;1.13;;;;;;;-0.25;80.93;101811.84;4983314;28;20050;-51
2021/01/08 10:52:07;;;;;;;2.30;1.08;;;;;;;-0.27;80.99;101811.28;4990589;28;20077;-54
2021/01/08 10:54:33;;;;;;;4.22;0.90;;;;;;;-0.27;81.19;101824.88;4985960;28;20074;-51
2021/01/08 10:57:00;;;;;;;3.63;0.80;;;;;;;-0.28;81.09;101825.13;4977410;28;20107;-52
2021/01/08 10:59:26;;;;;;;8.65;1.10;;;;;;;-0.27;81.14;101829.50;4972498;28;20058;-51
2021/01/08 11:01:53;;;;;;;2.03;0.85;;;;;;;-0.24;81.02;101818.13;4974546;28;20117;-54
2021/01/08 11:04:34;;;;;;;1.60;0.83;;;;;;;-0.17;80.94;101833.22;4975623;28;20050;-54
2021/01/08 11:07:01;;;;;;;3.53;1.15;;;;;;;-0.10;81.19;101835.75;4971290;28;20304;-50
2021/01/08 11:09:28;;;;;;;6.45;1.30;;;;;;;-0.03;80.88;101830.97;4971505;28;20105;-51
2021/01/08 11:11:54;;;;;;;2.78;1.25;;;;;;;0.01;80.73;101832.13;4970388;28;20039;-49
2021/01/08 11:14:20;;;;;;;7.72;1.70;;;;;;;0.05;80.85;101827.84;4993864;28;20050;-53
2021/01/08 11:16:47;;;;;;;9.70;2.65;;;;;;;0.08;80.69;101829.25;4989750;28;20121;-50
2021/01/08 11:19:13;;;;;;;8.75;1.70;;;;;;;0.07;80.77;101833.03;4988085;28;20042;-51
2021/01/08 11:21:39;;;;;;;2.90;1.15;;;;;;;0.05;80.48;101824.28;4973684;28;20512;-56
2021/01/08 11:24:06;;;;;;;4.68;1.05;;;;;;;0.05;80.33;101833.28;4975165;28;20525;-50
2021/01/08 11:26:32;;;;;;;3.85;1.48;;;;;;;0.09;80.76;101831.69;4971839;28;20382;-54
2021/01/08 11:28:59;;;;;;;3.75;1.45;;;;;;;0.12;80.40;101817.59;4984167;28;20069;-48
2021/01/08 11:31:35;;;;;;;4.13;1.33;;;;;;;0.14;79.76;101826.31;4948976;28;20054;-51
2021/01/08 11:34:03;;;;;;;3.22;1.13;;;;;;;0.20;80.02;101822.59;4986376;28;20106;-52
2021/01/08 11:36:30;;;;;;;6.13;1.42;;;;;;;0.26;79.89;101816.16;4973614;28;20440;-53
2021/01/08 11:38:58;;;;;;;2.75;1.02;;;;;;;0.31;79.79;101821.69;4978109;28;20054;-51
2021/01/08 11:41:24;;;;;;;5.03;1.52;;;;;;;0.35;79.75;101817.38;4971857;28;20034;-55